sensor_id;sensor_type;location;lat;lon;timestamp;temperature;humidity
26051;DHT22;13825;53.496;10.020;2023-03-13T09:20:35;11.30;99.90
26051;DHT22;13825;53.496;10.020;2023-03-13T09:24:15;11.30;99.90
26051;DHT22;13825;53.496;10.020;2023-03-13T09:33:07;11.50;99.90
26051;DHT22;13825;53.496;10.020;2023-03-13T09:42:06;11.40;99.90
26051;DHT22;13825;53.496;10.020;2023-03-13T13:52:33;16.70;99.90
26051;DHT22;13825;53.496;10.020;2023-03-13T13:55:02;16.90;99.90
26051;DHT22;13825;53.496;10.020;2023-03-13T13:57:31;16.90;98.00
26051;DHT22;13825;53.496;10.020;2023-03-13T14:00:14;17.00;99.80
26051;DHT22;13825;53.496;10.020;2023-03-13T14:02:48;16.90;98.60
26051;DHT22;13825;53.496;10.020;2023-03-13T14:05:20;17.00;97.50
26051;DHT22;13825;53.496;10.020;2023-03-13T14:07:54;16.90;97.80
26051;DHT22;13825;53.496;10.020;2023-03-13T14:10:42;17.00;97.80
26051;DHT22;13825;53.496;10.020;2023-03-13T14:13:12;17.00;95.90
26051;DHT22;13825;53.496;10.020;2023-03-13T14:15:44;16.60;96.20
26051;DHT22;13825;53.496;10.020;2023-03-13T14:18:18;16.30;98.40
26051;DHT22;13825;53.496;10.020;2023-03-13T14:20:54;16.30;98.10
26051;DHT22;13825;53.496;10.020;2023-03-13T14:23:35;16.50;99.90
26051;DHT22;13825;53.496;10.020;2023-03-13T14:26:13;16.20;98.70
26051;DHT22;13825;53.496;10.020;2023-03-13T14:28:43;16.20;98.00
26051;DHT22;13825;53.496;10.020;2023-03-13T14:31:21;16.60;98.00
26051;DHT22;13825;53.496;10.020;2023-03-13T14:33:49;16.90;96.60
26051;DHT22;13825;53.496;10.020;2023-03-13T14:36:17;17.00;94.30
26051;DHT22;13825;53.496;10.020;2023-03-13T14:38:53;16.90;95.50
26051;DHT22;13825;53.496;10.020;2023-03-13T14:41:30;16.70;95.40
26051;DHT22;13825;53.496;10.020;2023-03-13T14:44:05;16.80;95.60
26051;DHT22;13825;53.496;10.020;2023-03-13T14:46:39;17.10;96.00
26051;DHT22;13825;53.496;10.020;2023-03-13T14:49:18;17.30;93.90
26051;DHT22;13825;53.496;10.020;2023-03-13T14:51:57;17.60;93.80
26051;DHT22;13825;53.496;10.020;2023-03-13T14:54:29;17.60;91.00
26051;DHT22;13825;53.496;10.020;2023-03-13T14:57:14;17.60;91.90
26051;DHT22;13825;53.496;10.020;2023-03-13T14:59:42;17.50;90.00
26051;DHT22;13825;53.496;10.020;2023-03-13T15:02:25;16.90;91.30
26051;DHT22;13825;53.496;10.020;2023-03-13T15:04:55;16.80;91.40
26051;DHT22;13825;53.496;10.020;2023-03-13T15:07:25;16.60;91.40
26051;DHT22;13825;53.496;10.020;2023-03-13T15:09:56;16.80;91.40
26051;DHT22;13825;53.496;10.020;2023-03-13T15:12:28;16.70;91.00
26051;DHT22;13825;53.496;10.020;2023-03-13T15:14:57;17.00;90.70
26051;DHT22;13825;53.496;10.020;2023-03-13T15:17:26;17.10;91.40
26051;DHT22;13825;53.496;10.020;2023-03-13T15:19:55;17.00;90.10
26051;DHT22;13825;53.496;10.020;2023-03-13T15:22:27;16.50;90.80
26051;DHT22;13825;53.496;10.020;2023-03-13T15:24:56;16.40;92.20
26051;DHT22;13825;53.496;10.020;2023-03-13T15:27:25;16.50;91.30
26051;DHT22;13825;53.496;10.020;2023-03-13T15:29:52;16.40;90.90
26051;DHT22;13825;53.496;10.020;2023-03-13T15:32:25;16.20;92.60
26051;DHT22;13825;53.496;10.020;2023-03-13T15:35:00;16.10;92.40
26051;DHT22;13825;53.496;10.020;2023-03-13T15:37:36;16.10;93.70
26051;DHT22;13825;53.496;10.020;2023-03-13T15:40:13;16.10;94.40
26051;DHT22;13825;53.496;10.020;2023-03-13T15:42:53;15.90;96.10
26051;DHT22;13825;53.496;10.020;2023-03-13T15:45:30;15.70;95.70
26051;DHT22;13825;53.496;10.020;2023-03-13T15:47:58;15.70;95.90
26051;DHT22;13825;53.496;10.020;2023-03-13T15:50:28;15.80;97.10
26051;DHT22;13825;53.496;10.020;2023-03-13T15:52:56;15.90;96.50
26051;DHT22;13825;53.496;10.020;2023-03-13T15:55:37;15.90;96.50
26051;DHT22;13825;53.496;10.020;2023-03-13T15:58:08;15.80;97.70
26051;DHT22;13825;53.496;10.020;2023-03-13T16:00:42;15.70;97.20
26051;DHT22;13825;53.496;10.020;2023-03-13T16:06:14;15.80;95.70
26051;DHT22;13825;53.496;10.020;2023-03-13T16:08:43;15.80;95.60
26051;DHT22;13825;53.496;10.020;2023-03-13T16:11:16;15.90;95.80
26051;DHT22;13825;53.496;10.020;2023-03-13T16:13:44;16.00;94.80
26051;DHT22;13825;53.496;10.020;2023-03-13T16:16:18;15.80;95.10
26051;DHT22;13825;53.496;10.020;2023-03-13T16:18:47;15.80;94.80
26051;DHT22;13825;53.496;10.020;2023-03-13T16:21:18;16.00;94.20
26051;DHT22;13825;53.496;10.020;2023-03-13T16:23:46;16.30;91.90
26051;DHT22;13825;53.496;10.020;2023-03-13T16:26:17;16.10;92.50
26051;DHT22;13825;53.496;10.020;2023-03-13T16:28:45;15.80;93.60
26051;DHT22;13825;53.496;10.020;2023-03-13T16:31:22;15.60;93.70
26051;DHT22;13825;53.496;10.020;2023-03-13T16:33:50;15.40;94.70
26051;DHT22;13825;53.496;10.020;2023-03-13T16:36:20;15.40;94.50
26051;DHT22;13825;53.496;10.020;2023-03-13T16:38:48;15.40;91.90
26051;DHT22;13825;53.496;10.020;2023-03-13T16:41:18;15.50;93.80
26051;DHT22;13825;53.496;10.020;2023-03-13T16:43:45;15.40;93.30
26051;DHT22;13825;53.496;10.020;2023-03-13T16:46:14;15.40;94.00
26051;DHT22;13825;53.496;10.020;2023-03-13T16:48:42;15.30;94.40
26051;DHT22;13825;53.496;10.020;2023-03-13T16:51:17;15.30;94.30
26051;DHT22;13825;53.496;10.020;2023-03-13T16:53:45;15.20;95.10
26051;DHT22;13825;53.496;10.020;2023-03-13T16:56:32;15.10;95.90
26051;DHT22;13825;53.496;10.020;2023-03-13T16:59:01;15.10;96.20
26051;DHT22;13825;53.496;10.020;2023-03-13T17:01:28;15.00;96.20
26051;DHT22;13825;53.496;10.020;2023-03-13T17:03:56;15.00;96.50
26051;DHT22;13825;53.496;10.020;2023-03-13T17:06:25;14.90;96.90
26051;DHT22;13825;53.496;10.020;2023-03-13T17:08:55;14.80;97.20
26051;DHT22;13825;53.496;10.020;2023-03-13T17:11:23;14.80;98.30
26051;DHT22;13825;53.496;10.020;2023-03-13T17:13:52;14.80;97.60
26051;DHT22;13825;53.496;10.020;2023-03-13T17:16:21;14.70;98.50
26051;DHT22;13825;53.496;10.020;2023-03-13T17:18:50;14.60;98.70
26051;DHT22;13825;53.496;10.020;2023-03-13T17:21:19;14.60;99.90
26051;DHT22;13825;53.496;10.020;2023-03-13T17:23:46;14.50;99.90
26051;DHT22;13825;53.496;10.020;2023-03-13T17:26:16;14.50;99.90
26051;DHT22;13825;53.496;10.020;2023-03-13T17:28:44;14.70;99.20
26051;DHT22;13825;53.496;10.020;2023-03-13T17:31:13;14.70;99.90
26051;DHT22;13825;53.496;10.020;2023-03-13T17:33:40;14.70;99.50
26051;DHT22;13825;53.496;10.020;2023-03-13T17:36:16;14.60;99.80
26051;DHT22;13825;53.496;10.020;2023-03-13T17:38:44;14.60;99.10
26051;DHT22;13825;53.496;10.020;2023-03-13T17:41:12;14.60;99.20
26051;DHT22;13825;53.496;10.020;2023-03-13T17:43:40;14.60;98.70
26051;DHT22;13825;53.496;10.020;2023-03-13T17:46:17;14.60;99.10
26051;DHT22;13825;53.496;10.020;2023-03-13T17:48:44;14.50;99.70
26051;DHT22;13825;53.496;10.020;2023-03-13T17:51:14;14.50;99.50
26051;DHT22;13825;53.496;10.020;2023-03-13T17:53:41;14.40;99.50
26051;DHT22;13825;53.496;10.020;2023-03-13T17:56:12;14.40;99.70
26051;DHT22;13825;53.496;10.020;2023-03-13T17:58:39;14.30;99.70
26051;DHT22;13825;53.496;10.020;2023-03-13T18:01:09;14.30;99.90
26051;DHT22;13825;53.496;10.020;2023-03-13T18:03:38;14.30;99.90
26051;DHT22;13825;53.496;10.020;2023-03-13T18:06:22;14.30;99.60
26051;DHT22;13825;53.496;10.020;2023-03-13T18:08:51;14.10;99.90
26051;DHT22;13825;53.496;10.020;2023-03-13T18:11:18;14.10;99.70
26051;DHT22;13825;53.496;10.020;2023-03-13T18:13:46;14.10;99.90
26051;DHT22;13825;53.496;10.020;2023-03-13T18:16:18;14.00;99.90
26051;DHT22;13825;53.496;10.020;2023-03-13T18:18:48;13.90;99.90
26051;DHT22;13825;53.496;10.020;2023-03-13T18:21:15;14.00;99.90
26051;DHT22;13825;53.496;10.020;2023-03-13T18:23:42;14.00;99.90
26051;DHT22;13825;53.496;10.020;2023-03-13T18:26:25;13.90;99.90
26051;DHT22;13825;53.496;10.020;2023-03-13T18:28:52;13.80;99.90
26051;DHT22;13825;53.496;10.020;2023-03-13T18:31:25;13.70;99.90
26051;DHT22;13825;53.496;10.020;2023-03-13T18:33:55;13.70;99.90
26051;DHT22;13825;53.496;10.020;2023-03-13T18:36:22;13.60;99.90
26051;DHT22;13825;53.496;10.020;2023-03-13T18:38:49;13.60;99.90
26051;DHT22;13825;53.496;10.020;2023-03-13T18:41:17;13.50;99.90
26051;DHT22;13825;53.496;10.020;2023-03-13T18:43:44;13.50;99.90
26051;DHT22;13825;53.496;10.020;2023-03-13T18:46:16;13.30;99.90
26051;DHT22;13825;53.496;10.020;2023-03-13T18:48:44;13.30;99.90
26051;DHT22;13825;53.496;10.020;2023-03-13T18:51:14;13.20;99.90
26051;DHT22;13825;53.496;10.020;2023-03-13T18:53:41;13.10;99.90
26051;DHT22;13825;53.496;10.020;2023-03-13T18:56:17;12.90;99.90
26051;DHT22;13825;53.496;10.020;2023-03-13T18:58:45;12.80;99.90
26051;DHT22;13825;53.496;10.020;2023-03-13T19:01:14;12.80;99.90
26051;DHT22;13825;53.496;10.020;2023-03-13T19:03:42;12.70;99.90
26051;DHT22;13825;53.496;10.020;2023-03-13T19:06:17;12.70;99.90
26051;DHT22;13825;53.496;10.020;2023-03-13T19:08:44;12.70;99.90
26051;DHT22;13825;53.496;10.020;2023-03-13T19:11:12;12.60;99.90
26051;DHT22;13825;53.496;10.020;2023-03-13T19:13:39;12.60;99.90
26051;DHT22;13825;53.496;10.020;2023-03-13T19:16:12;12.50;99.90
26051;DHT22;13825;53.496;10.020;2023-03-13T19:18:40;12.50;99.90
26051;DHT22;13825;53.496;10.020;2023-03-13T19:21:19;12.50;99.90
26051;DHT22;13825;53.496;10.020;2023-03-13T19:23:47;12.50;99.90
26051;DHT22;13825;53.496;10.020;2023-03-13T19:26:17;12.60;99.90
26051;DHT22;13825;53.496;10.020;2023-03-13T19:28:44;12.70;99.90
26051;DHT22;13825;53.496;10.020;2023-03-13T19:31:11;12.70;99.90
26051;DHT22;13825;53.496;10.020;2023-03-13T19:33:38;12.70;99.90
26051;DHT22;13825;53.496;10.020;2023-03-13T19:36:10;12.80;99.90
26051;DHT22;13825;53.496;10.020;2023-03-13T19:38:39;12.80;99.90
26051;DHT22;13825;53.496;10.020;2023-03-13T19:41:07;12.90;99.90
26051;DHT22;13825;53.496;10.020;2023-03-13T19:43:34;12.80;99.90
26051;DHT22;13825;53.496;10.020;2023-03-13T19:46:18;12.80;99.90
26051;DHT22;13825;53.496;10.020;2023-03-13T19:48:45;12.80;99.90
26051;DHT22;13825;53.496;10.020;2023-03-13T19:51:13;12.80;99.90
26051;DHT22;13825;53.496;10.020;2023-03-13T19:53:41;12.80;99.90
26051;DHT22;13825;53.496;10.020;2023-03-13T19:56:14;12.70;99.90
26051;DHT22;13825;53.496;10.020;2023-03-13T19:58:42;12.80;99.90
26051;DHT22;13825;53.496;10.020;2023-03-13T20:01:09;12.90;99.90
26051;DHT22;13825;53.496;10.020;2023-03-13T20:03:36;12.90;99.90
26051;DHT22;13825;53.496;10.020;2023-03-13T20:06:03;12.80;99.90
26051;DHT22;13825;53.496;10.020;2023-03-13T20:08:30;12.80;99.90
26051;DHT22;13825;53.496;10.020;2023-03-13T20:10:58;12.80;99.90
26051;DHT22;13825;53.496;10.020;2023-03-13T20:13:25;12.60;99.90
26051;DHT22;13825;53.496;10.020;2023-03-13T20:15:52;12.50;99.90
26051;DHT22;13825;53.496;10.020;2023-03-13T20:18:19;12.40;99.90
26051;DHT22;13825;53.496;10.020;2023-03-13T20:20:47;12.30;99.90
26051;DHT22;13825;53.496;10.020;2023-03-13T20:23:14;12.10;99.90
26051;DHT22;13825;53.496;10.020;2023-03-13T20:25:42;12.10;99.90
26051;DHT22;13825;53.496;10.020;2023-03-13T20:28:10;12.10;99.90
26051;DHT22;13825;53.496;10.020;2023-03-13T20:30:38;12.10;99.90
26051;DHT22;13825;53.496;10.020;2023-03-13T20:33:07;12.00;99.90
26051;DHT22;13825;53.496;10.020;2023-03-13T20:35:34;12.00;99.90
26051;DHT22;13825;53.496;10.020;2023-03-13T20:38:02;11.80;99.90
26051;DHT22;13825;53.496;10.020;2023-03-13T20:40:30;11.80;99.90
26051;DHT22;13825;53.496;10.020;2023-03-13T20:42:57;11.70;99.90
26051;DHT22;13825;53.496;10.020;2023-03-13T20:45:26;11.60;99.90
26051;DHT22;13825;53.496;10.020;2023-03-13T20:47:53;11.60;99.90
26051;DHT22;13825;53.496;10.020;2023-03-13T20:50:20;11.60;99.90
26051;DHT22;13825;53.496;10.020;2023-03-13T20:52:48;11.60;99.90
26051;DHT22;13825;53.496;10.020;2023-03-13T20:55:15;11.50;99.90
26051;DHT22;13825;53.496;10.020;2023-03-13T20:57:42;11.40;99.90
26051;DHT22;13825;53.496;10.020;2023-03-13T21:00:10;11.40;99.90
26051;DHT22;13825;53.496;10.020;2023-03-13T21:02:39;11.40;99.90
26051;DHT22;13825;53.496;10.020;2023-03-13T21:05:06;11.30;99.90
26051;DHT22;13825;53.496;10.020;2023-03-13T21:07:34;11.10;99.90
26051;DHT22;13825;53.496;10.020;2023-03-13T21:10:01;11.00;99.90
26051;DHT22;13825;53.496;10.020;2023-03-13T21:12:28;10.90;99.90
26051;DHT22;13825;53.496;10.020;2023-03-13T21:14:55;10.80;99.90
26051;DHT22;13825;53.496;10.020;2023-03-13T21:17:23;10.70;99.90
26051;DHT22;13825;53.496;10.020;2023-03-13T21:19:52;10.60;99.90
26051;DHT22;13825;53.496;10.020;2023-03-13T21:22:20;10.60;99.90
26051;DHT22;13825;53.496;10.020;2023-03-13T21:24:49;10.50;99.90
26051;DHT22;13825;53.496;10.020;2023-03-13T21:27:16;10.50;99.90
26051;DHT22;13825;53.496;10.020;2023-03-13T21:29:43;10.40;4.60
26051;DHT22;13825;53.496;10.020;2023-03-13T21:32:12;10.40;99.90
26051;DHT22;13825;53.496;10.020;2023-03-13T21:34:40;10.40;99.90
26051;DHT22;13825;53.496;10.020;2023-03-13T21:37:10;10.50;99.90
26051;DHT22;13825;53.496;10.020;2023-03-13T21:39:37;10.50;99.90
26051;DHT22;13825;53.496;10.020;2023-03-13T21:42:07;10.40;99.90
26051;DHT22;13825;53.496;10.020;2023-03-13T21:44:34;10.50;99.90
26051;DHT22;13825;53.496;10.020;2023-03-13T21:47:01;10.40;99.90
26051;DHT22;13825;53.496;10.020;2023-03-13T21:49:28;10.40;99.90
26051;DHT22;13825;53.496;10.020;2023-03-13T21:51:55;10.50;99.90
26051;DHT22;13825;53.496;10.020;2023-03-13T21:54:24;10.40;99.90
26051;DHT22;13825;53.496;10.020;2023-03-13T21:56:51;10.40;99.90
26051;DHT22;13825;53.496;10.020;2023-03-13T21:59:19;10.50;99.90
26051;DHT22;13825;53.496;10.020;2023-03-13T22:01:49;10.60;99.90
26051;DHT22;13825;53.496;10.020;2023-03-13T22:04:16;10.60;99.90
26051;DHT22;13825;53.496;10.020;2023-03-13T22:06:43;10.70;99.90
26051;DHT22;13825;53.496;10.020;2023-03-13T22:09:10;10.70;99.90
26051;DHT22;13825;53.496;10.020;2023-03-13T22:11:39;10.80;99.90
26051;DHT22;13825;53.496;10.020;2023-03-13T22:14:06;10.80;99.90
26051;DHT22;13825;53.496;10.020;2023-03-13T22:16:33;10.80;99.90
26051;DHT22;13825;53.496;10.020;2023-03-13T22:19:00;10.80;99.90
26051;DHT22;13825;53.496;10.020;2023-03-13T22:21:27;10.80;99.90
26051;DHT22;13825;53.496;10.020;2023-03-13T22:23:54;10.90;99.90
26051;DHT22;13825;53.496;10.020;2023-03-13T22:26:21;10.80;1.00
26051;DHT22;13825;53.496;10.020;2023-03-13T22:28:50;10.80;1.00
26051;DHT22;13825;53.496;10.020;2023-03-13T22:31:16;10.80;16.30
26051;DHT22;13825;53.496;10.020;2023-03-13T22:33:44;10.70;99.90
26051;DHT22;13825;53.496;10.020;2023-03-13T22:36:11;10.70;99.90
26051;DHT22;13825;53.496;10.020;2023-03-13T22:38:38;10.70;1.00
26051;DHT22;13825;53.496;10.020;2023-03-13T22:41:07;10.60;1.00
26051;DHT22;13825;53.496;10.020;2023-03-13T22:43:34;10.60;1.00
26051;DHT22;13825;53.496;10.020;2023-03-13T22:46:03;10.60;1.00
26051;DHT22;13825;53.496;10.020;2023-03-13T22:48:31;10.70;32.90
26051;DHT22;13825;53.496;10.020;2023-03-13T22:50:59;10.70;99.90
26051;DHT22;13825;53.496;10.020;2023-03-13T22:53:26;10.70;99.90
26051;DHT22;13825;53.496;10.020;2023-03-13T22:55:53;10.60;1.00
26051;DHT22;13825;53.496;10.020;2023-03-13T22:58:20;10.60;1.00
26051;DHT22;13825;53.496;10.020;2023-03-13T23:00:47;10.70;1.00
26051;DHT22;13825;53.496;10.020;2023-03-13T23:03:16;10.70;1.00
26051;DHT22;13825;53.496;10.020;2023-03-13T23:05:44;10.70;1.00
26051;DHT22;13825;53.496;10.020;2023-03-13T23:08:13;10.80;1.00
26051;DHT22;13825;53.496;10.020;2023-03-13T23:10:41;10.80;1.00
26051;DHT22;13825;53.496;10.020;2023-03-13T23:13:08;10.80;1.00
26051;DHT22;13825;53.496;10.020;2023-03-13T23:15:35;10.80;1.00
26051;DHT22;13825;53.496;10.020;2023-03-13T23:18:03;10.80;1.00
26051;DHT22;13825;53.496;10.020;2023-03-13T23:20:32;10.70;1.00
26051;DHT22;13825;53.496;10.020;2023-03-13T23:22:59;10.70;1.00
26051;DHT22;13825;53.496;10.020;2023-03-13T23:25:26;10.60;1.00
26051;DHT22;13825;53.496;10.020;2023-03-13T23:27:53;10.50;1.00
26051;DHT22;13825;53.496;10.020;2023-03-13T23:30:20;10.50;99.90
26051;DHT22;13825;53.496;10.020;2023-03-13T23:32:47;10.40;99.90
26051;DHT22;13825;53.496;10.020;2023-03-13T23:35:15;10.40;99.90
26051;DHT22;13825;53.496;10.020;2023-03-13T23:37:46;10.40;99.90
26051;DHT22;13825;53.496;10.020;2023-03-13T23:40:14;10.40;99.90
26051;DHT22;13825;53.496;10.020;2023-03-13T23:42:44;10.40;99.90
26051;DHT22;13825;53.496;10.020;2023-03-13T23:45:11;10.30;92.20
26051;DHT22;13825;53.496;10.020;2023-03-13T23:47:38;10.30;1.00
26051;DHT22;13825;53.496;10.020;2023-03-13T23:50:07;10.30;1.00
26051;DHT22;13825;53.496;10.020;2023-03-13T23:52:34;10.20;1.00
26051;DHT22;13825;53.496;10.020;2023-03-13T23:55:04;10.20;1.00
26051;DHT22;13825;53.496;10.020;2023-03-13T23:57:31;10.20;1.00
26051;DHT22;13825;53.496;10.020;2023-03-13T23:59:58;10.20;99.90
